sensor_id;sensor_type;location;lat;lon;timestamp;pressure;altitude;pressure_sealevel;temperature
71081;BMP180;58740;50.672;18.690;2023-04-03T00:01:19;99483.60;;;2.80
71081;BMP180;58740;50.672;18.690;2023-04-03T00:03:47;99489.00;;;2.80
71081;BMP180;58740;50.672;18.690;2023-04-03T00:06:14;99492.00;;;2.80
71081;BMP180;58740;50.672;18.690;2023-04-03T00:08:42;99486.00;;;2.80
71081;BMP180;58740;50.672;18.690;2023-04-03T00:11:10;99486.20;;;2.80
71081;BMP180;58740;50.672;18.690;2023-04-03T00:13:38;99487.60;;;2.80
71081;BMP180;58740;50.672;18.690;2023-04-03T00:16:08;99487.80;;;2.80
71081;BMP180;58740;50.672;18.690;2023-04-03T00:18:39;99493.80;;;2.72
71081;BMP180;58740;50.672;18.690;2023-04-03T00:21:10;99489.40;;;2.70
71081;BMP180;58740;50.672;18.690;2023-04-03T00:23:39;99493.20;;;2.70
71081;BMP180;58740;50.672;18.690;2023-04-03T00:26:07;99494.60;;;2.70
71081;BMP180;58740;50.672;18.690;2023-04-03T00:28:35;99493.80;;;2.70
71081;BMP180;58740;50.672;18.690;2023-04-03T00:31:03;99493.80;;;2.70
71081;BMP180;58740;50.672;18.690;2023-04-03T00:33:31;99493.40;;;2.68
71081;BMP180;58740;50.672;18.690;2023-04-03T00:35:58;99492.00;;;2.66
71081;BMP180;58740;50.672;18.690;2023-04-03T00:38:27;99492.00;;;2.64
71081;BMP180;58740;50.672;18.690;2023-04-03T00:40:54;99486.20;;;2.60
71081;BMP180;58740;50.672;18.690;2023-04-03T00:43:25;99496.00;;;2.60
71081;BMP180;58740;50.672;18.690;2023-04-03T00:45:56;99492.60;;;2.60
71081;BMP180;58740;50.672;18.690;2023-04-03T00:48:33;99487.80;;;2.60
71081;BMP180;58740;50.672;18.690;2023-04-03T00:51:05;99490.20;;;2.50
71081;BMP180;58740;50.672;18.690;2023-04-03T00:53:40;99489.40;;;2.50
71081;BMP180;58740;50.672;18.690;2023-04-03T00:56:13;99494.20;;;2.50
71081;BMP180;58740;50.672;18.690;2023-04-03T01:01:49;99487.60;;;2.50
71081;BMP180;58740;50.672;18.690;2023-04-03T01:04:34;99490.40;;;2.50
71081;BMP180;58740;50.672;18.690;2023-04-03T01:07:29;99490.20;;;2.40
71081;BMP180;58740;50.672;18.690;2023-04-03T01:10:02;99490.00;;;2.40
71081;BMP180;58740;50.672;18.690;2023-04-03T01:12:35;99489.60;;;2.40
71081;BMP180;58740;50.672;18.690;2023-04-03T01:17:51;99489.40;;;2.36
71081;BMP180;58740;50.672;18.690;2023-04-03T01:25:58;99487.60;;;2.30
71081;BMP180;58740;50.672;18.690;2023-04-03T01:28:31;99481.00;;;2.28
71081;BMP180;58740;50.672;18.690;2023-04-03T01:31:40;99491.60;;;2.20
71081;BMP180;58740;50.672;18.690;2023-04-03T01:34:08;99497.60;;;2.20
71081;BMP180;58740;50.672;18.690;2023-04-03T01:36:36;99498.40;;;2.10
71081;BMP180;58740;50.672;18.690;2023-04-03T01:39:04;99502.60;;;2.08
71081;BMP180;58740;50.672;18.690;2023-04-03T01:41:31;99500.60;;;2.00
71081;BMP180;58740;50.672;18.690;2023-04-03T01:43:59;99501.20;;;1.98
71081;BMP180;58740;50.672;18.690;2023-04-03T01:46:27;99504.20;;;1.90
71081;BMP180;58740;50.672;18.690;2023-04-03T01:48:55;99508.20;;;1.90
71081;BMP180;58740;50.672;18.690;2023-04-03T01:51:23;99510.00;;;1.90
71081;BMP180;58740;50.672;18.690;2023-04-03T01:53:50;99510.00;;;1.80
71081;BMP180;58740;50.672;18.690;2023-04-03T01:56:19;99511.80;;;1.80
71081;BMP180;58740;50.672;18.690;2023-04-03T01:58:47;99517.00;;;1.80
71081;BMP180;58740;50.672;18.690;2023-04-03T02:01:15;99513.40;;;1.80
71081;BMP180;58740;50.672;18.690;2023-04-03T02:03:43;99516.60;;;1.72
71081;BMP180;58740;50.672;18.690;2023-04-03T02:06:11;99525.20;;;1.70
71081;BMP180;58740;50.672;18.690;2023-04-03T02:08:39;99517.80;;;1.70
71081;BMP180;58740;50.672;18.690;2023-04-03T02:11:07;99527.20;;;1.68
71081;BMP180;58740;50.672;18.690;2023-04-03T02:13:35;99521.80;;;1.66
71081;BMP180;58740;50.672;18.690;2023-04-03T02:16:10;99528.80;;;1.60
71081;BMP180;58740;50.672;18.690;2023-04-03T02:18:39;99532.80;;;1.60
71081;BMP180;58740;50.672;18.690;2023-04-03T02:21:07;99532.00;;;1.60
71081;BMP180;58740;50.672;18.690;2023-04-03T02:23:35;99539.20;;;1.60
71081;BMP180;58740;50.672;18.690;2023-04-03T02:26:11;99534.40;;;1.50
71081;BMP180;58740;50.672;18.690;2023-04-03T02:28:40;99535.80;;;1.50
71081;BMP180;58740;50.672;18.690;2023-04-03T02:31:10;99531.00;;;1.50
71081;BMP180;58740;50.672;18.690;2023-04-03T02:33:38;99540.00;;;1.50
71081;BMP180;58740;50.672;18.690;2023-04-03T02:36:07;99541.80;;;1.50
71081;BMP180;58740;50.672;18.690;2023-04-03T02:38:36;99540.40;;;1.46
71081;BMP180;58740;50.672;18.690;2023-04-03T02:41:10;99545.60;;;1.40
71081;BMP180;58740;50.672;18.690;2023-04-03T02:43:39;99544.20;;;1.40
71081;BMP180;58740;50.672;18.690;2023-04-03T02:46:07;99547.40;;;1.40
71081;BMP180;58740;50.672;18.690;2023-04-03T02:48:35;99544.20;;;1.40
71081;BMP180;58740;50.672;18.690;2023-04-03T02:51:04;99544.20;;;1.40
71081;BMP180;58740;50.672;18.690;2023-04-03T02:53:32;99545.40;;;1.30
71081;BMP180;58740;50.672;18.690;2023-04-03T02:55:59;99550.00;;;1.30
71081;BMP180;58740;50.672;18.690;2023-04-03T02:58:27;99552.20;;;1.20
71081;BMP180;58740;50.672;18.690;2023-04-03T03:00:55;99556.40;;;1.20
71081;BMP180;58740;50.672;18.690;2023-04-03T03:03:22;99549.80;;;1.20
71081;BMP180;58740;50.672;18.690;2023-04-03T03:06:04;99559.20;;;1.22
71081;BMP180;58740;50.672;18.690;2023-04-03T03:08:33;99557.40;;;1.20
71081;BMP180;58740;50.672;18.690;2023-04-03T03:11:02;99563.40;;;1.20
71081;BMP180;58740;50.672;18.690;2023-04-03T03:13:31;99566.20;;;1.12
71081;BMP180;58740;50.672;18.690;2023-04-03T03:16:00;99572.00;;;1.10
71081;BMP180;58740;50.672;18.690;2023-04-03T03:18:28;99570.80;;;1.10
71081;BMP180;58740;50.672;18.690;2023-04-03T03:20:59;99567.40;;;1.10
71081;BMP180;58740;50.672;18.690;2023-04-03T03:23:29;99567.80;;;1.10
71081;BMP180;58740;50.672;18.690;2023-04-03T03:26:03;99571.40;;;1.10
71081;BMP180;58740;50.672;18.690;2023-04-03T03:28:32;99571.80;;;1.08
71081;BMP180;58740;50.672;18.690;2023-04-03T03:31:00;99567.00;;;1.00
71081;BMP180;58740;50.672;18.690;2023-04-03T03:33:28;99568.80;;;1.00
71081;BMP180;58740;50.672;18.690;2023-04-03T03:35:57;99573.80;;;0.98
71081;BMP180;58740;50.672;18.690;2023-04-03T03:38:25;99572.40;;;0.90
71081;BMP180;58740;50.672;18.690;2023-04-03T03:40:53;99565.60;;;0.90
71081;BMP180;58740;50.672;18.690;2023-04-03T03:43:21;99570.40;;;0.84
71081;BMP180;58740;50.672;18.690;2023-04-03T03:45:52;99569.20;;;0.90
71081;BMP180;58740;50.672;18.690;2023-04-03T03:48:21;99571.00;;;0.90
71081;BMP180;58740;50.672;18.690;2023-04-03T03:50:50;99571.00;;;0.82
71081;BMP180;58740;50.672;18.690;2023-04-03T03:53:18;99580.60;;;0.80
71081;BMP180;58740;50.672;18.690;2023-04-03T03:55:46;99579.00;;;0.74
71081;BMP180;58740;50.672;18.690;2023-04-03T03:58:14;99578.40;;;0.70
71081;BMP180;58740;50.672;18.690;2023-04-03T04:00:42;99573.00;;;0.70
71081;BMP180;58740;50.672;18.690;2023-04-03T04:03:09;99575.80;;;0.70
71081;BMP180;58740;50.672;18.690;2023-04-03T04:05:37;99582.00;;;0.64
71081;BMP180;58740;50.672;18.690;2023-04-03T04:08:06;99580.40;;;0.62
71081;BMP180;58740;50.672;18.690;2023-04-03T04:10:35;99590.80;;;0.60
71081;BMP180;58740;50.672;18.690;2023-04-03T04:13:04;99590.20;;;0.60
71081;BMP180;58740;50.672;18.690;2023-04-03T04:15:32;99584.20;;;0.60
71081;BMP180;58740;50.672;18.690;2023-04-03T04:17:59;99596.60;;;0.60
71081;BMP180;58740;50.672;18.690;2023-04-03T04:20:27;99593.40;;;0.60
71081;BMP180;58740;50.672;18.690;2023-04-03T04:22:55;99594.00;;;0.58
71081;BMP180;58740;50.672;18.690;2023-04-03T04:25:22;99599.80;;;0.58
71081;BMP180;58740;50.672;18.690;2023-04-03T04:27:50;99599.40;;;0.60
71081;BMP180;58740;50.672;18.690;2023-04-03T04:30:18;99597.40;;;0.60
71081;BMP180;58740;50.672;18.690;2023-04-03T04:32:45;99600.00;;;0.60
71081;BMP180;58740;50.672;18.690;2023-04-03T04:35:14;99610.00;;;0.60
71081;BMP180;58740;50.672;18.690;2023-04-03T04:37:43;99608.80;;;0.60
71081;BMP180;58740;50.672;18.690;2023-04-03T04:40:11;99614.00;;;0.58
71081;BMP180;58740;50.672;18.690;2023-04-03T04:42:39;99617.60;;;0.56
71081;BMP180;58740;50.672;18.690;2023-04-03T04:45:06;99619.00;;;0.52
71081;BMP180;58740;50.672;18.690;2023-04-03T04:47:35;99619.40;;;0.56
71081;BMP180;58740;50.672;18.690;2023-04-03T04:50:03;99618.80;;;0.60
71081;BMP180;58740;50.672;18.690;2023-04-03T04:52:31;99623.20;;;0.56
71081;BMP180;58740;50.672;18.690;2023-04-03T04:54:59;99624.80;;;0.50
71081;BMP180;58740;50.672;18.690;2023-04-03T04:57:27;99628.40;;;0.50
71081;BMP180;58740;50.672;18.690;2023-04-03T04:59:55;99627.20;;;0.50
71081;BMP180;58740;50.672;18.690;2023-04-03T05:02:22;99625.80;;;0.58
71081;BMP180;58740;50.672;18.690;2023-04-03T05:04:50;99623.60;;;0.58
71081;BMP180;58740;50.672;18.690;2023-04-03T05:07:19;99624.80;;;0.50
71081;BMP180;58740;50.672;18.690;2023-04-03T05:09:47;99624.00;;;0.50
71081;BMP180;58740;50.672;18.690;2023-04-03T05:12:16;99627.00;;;0.50
71081;BMP180;58740;50.672;18.690;2023-04-03T05:14:44;99627.20;;;0.50
71081;BMP180;58740;50.672;18.690;2023-04-03T05:17:11;99634.00;;;0.50
71081;BMP180;58740;50.672;18.690;2023-04-03T05:19:39;99632.60;;;0.58
71081;BMP180;58740;50.672;18.690;2023-04-03T05:22:07;99635.80;;;0.60
71081;BMP180;58740;50.672;18.690;2023-04-03T05:24:35;99642.60;;;0.60
71081;BMP180;58740;50.672;18.690;2023-04-03T05:27:03;99640.20;;;0.60
71081;BMP180;58740;50.672;18.690;2023-04-03T05:29:30;99652.00;;;0.60
71081;BMP180;58740;50.672;18.690;2023-04-03T05:31:58;99653.00;;;0.62
71081;BMP180;58740;50.672;18.690;2023-04-03T05:34:26;99654.20;;;0.70
71081;BMP180;58740;50.672;18.690;2023-04-03T05:36:54;99650.60;;;0.70
71081;BMP180;58740;50.672;18.690;2023-04-03T05:39:21;99654.20;;;0.70
71081;BMP180;58740;50.672;18.690;2023-04-03T05:41:50;99656.40;;;0.70
71081;BMP180;58740;50.672;18.690;2023-04-03T05:44:17;99654.60;;;0.74
71081;BMP180;58740;50.672;18.690;2023-04-03T05:46:45;99651.40;;;0.74
71081;BMP180;58740;50.672;18.690;2023-04-03T05:49:13;99651.80;;;0.80
71081;BMP180;58740;50.672;18.690;2023-04-03T05:51:41;99652.00;;;0.90
71081;BMP180;58740;50.672;18.690;2023-04-03T05:54:26;99654.60;;;1.00
71081;BMP180;58740;50.672;18.690;2023-04-03T05:56:55;99658.20;;;1.10
71081;BMP180;58740;50.672;18.690;2023-04-03T05:59:23;99655.20;;;1.20
71081;BMP180;58740;50.672;18.690;2023-04-03T06:01:50;99658.60;;;1.20
71081;BMP180;58740;50.672;18.690;2023-04-03T06:04:18;99664.40;;;1.20
71081;BMP180;58740;50.672;18.690;2023-04-03T06:06:54;99663.20;;;1.20
71081;BMP180;58740;50.672;18.690;2023-04-03T06:09:26;99665.60;;;1.30
71081;BMP180;58740;50.672;18.690;2023-04-03T06:11:57;99664.60;;;1.34
71081;BMP180;58740;50.672;18.690;2023-04-03T06:14:26;99658.60;;;1.40
71081;BMP180;58740;50.672;18.690;2023-04-03T06:16:54;99661.20;;;1.50
71081;BMP180;58740;50.672;18.690;2023-04-03T06:19:22;99656.80;;;1.50
71081;BMP180;58740;50.672;18.690;2023-04-03T06:21:50;99665.40;;;1.50
71081;BMP180;58740;50.672;18.690;2023-04-03T06:24:18;99670.60;;;1.50
71081;BMP180;58740;50.672;18.690;2023-04-03T06:26:49;99666.60;;;1.40
71081;BMP180;58740;50.672;18.690;2023-04-03T06:29:20;99672.60;;;1.40
71081;BMP180;58740;50.672;18.690;2023-04-03T06:31:49;99675.80;;;1.30
71081;BMP180;58740;50.672;18.690;2023-04-03T06:34:18;99675.20;;;1.30
71081;BMP180;58740;50.672;18.690;2023-04-03T06:36:46;99678.80;;;1.26
71081;BMP180;58740;50.672;18.690;2023-04-03T06:39:17;99682.40;;;1.20
71081;BMP180;58740;50.672;18.690;2023-04-03T06:41:45;99687.80;;;1.20
71081;BMP180;58740;50.672;18.690;2023-04-03T06:44:13;99687.80;;;1.30
71081;BMP180;58740;50.672;18.690;2023-04-03T06:46:44;99685.80;;;1.40
71081;BMP180;58740;50.672;18.690;2023-04-03T06:49:13;99690.80;;;1.58
71081;BMP180;58740;50.672;18.690;2023-04-03T06:51:42;99690.60;;;1.70
71081;BMP180;58740;50.672;18.690;2023-04-03T06:54:10;99689.00;;;1.80
71081;BMP180;58740;50.672;18.690;2023-04-03T06:56:37;99690.80;;;1.90
71081;BMP180;58740;50.672;18.690;2023-04-03T06:59:05;99697.60;;;2.00
71081;BMP180;58740;50.672;18.690;2023-04-03T07:01:33;99694.80;;;2.10
71081;BMP180;58740;50.672;18.690;2023-04-03T07:04:01;99694.20;;;2.14
71081;BMP180;58740;50.672;18.690;2023-04-03T07:06:29;99704.40;;;2.26
71081;BMP180;58740;50.672;18.690;2023-04-03T07:08:59;99702.20;;;2.30
71081;BMP180;58740;50.672;18.690;2023-04-03T07:11:28;99701.20;;;2.40
71081;BMP180;58740;50.672;18.690;2023-04-03T07:13:55;99700.40;;;2.48
71081;BMP180;58740;50.672;18.690;2023-04-03T07:16:24;99704.40;;;2.54
71081;BMP180;58740;50.672;18.690;2023-04-03T07:18:52;99700.20;;;2.64
71081;BMP180;58740;50.672;18.690;2023-04-03T07:21:20;99710.00;;;2.70
71081;BMP180;58740;50.672;18.690;2023-04-03T07:23:48;99706.40;;;2.78
71081;BMP180;58740;50.672;18.690;2023-04-03T07:26:22;99707.00;;;2.80
71081;BMP180;58740;50.672;18.690;2023-04-03T07:28:49;99706.80;;;2.90
71081;BMP180;58740;50.672;18.690;2023-04-03T07:31:17;99710.00;;;3.00
71081;BMP180;58740;50.672;18.690;2023-04-03T07:33:46;99710.20;;;3.00
71081;BMP180;58740;50.672;18.690;2023-04-03T07:36:19;99711.00;;;3.00
71081;BMP180;58740;50.672;18.690;2023-04-03T07:38:48;99712.80;;;3.10
71081;BMP180;58740;50.672;18.690;2023-04-03T07:41:19;99715.60;;;3.10
71081;BMP180;58740;50.672;18.690;2023-04-03T07:43:48;99716.80;;;3.20
71081;BMP180;58740;50.672;18.690;2023-04-03T07:46:17;99715.20;;;3.20
71081;BMP180;58740;50.672;18.690;2023-04-03T07:48:45;99716.60;;;3.30
71081;BMP180;58740;50.672;18.690;2023-04-03T07:51:13;99710.00;;;3.26
71081;BMP180;58740;50.672;18.690;2023-04-03T07:53:41;99701.60;;;3.20
71081;BMP180;58740;50.672;18.690;2023-04-03T07:56:08;99710.60;;;3.20
71081;BMP180;58740;50.672;18.690;2023-04-03T07:58:37;99705.80;;;3.30
71081;BMP180;58740;50.672;18.690;2023-04-03T08:01:04;99719.40;;;3.30
71081;BMP180;58740;50.672;18.690;2023-04-03T08:03:33;99709.60;;;3.30
71081;BMP180;58740;50.672;18.690;2023-04-03T08:06:05;99702.80;;;3.30
71081;BMP180;58740;50.672;18.690;2023-04-03T08:08:42;99706.20;;;3.30
71081;BMP180;58740;50.672;18.690;2023-04-03T08:11:11;99714.40;;;3.30
71081;BMP180;58740;50.672;18.690;2023-04-03T08:13:39;99718.00;;;3.40
71081;BMP180;58740;50.672;18.690;2023-04-03T08:16:13;99722.80;;;3.50
71081;BMP180;58740;50.672;18.690;2023-04-03T08:18:41;99712.20;;;3.58
71081;BMP180;58740;50.672;18.690;2023-04-03T08:21:11;99716.40;;;3.60
71081;BMP180;58740;50.672;18.690;2023-04-03T08:23:41;99707.40;;;3.50
71081;BMP180;58740;50.672;18.690;2023-04-03T08:26:15;99710.20;;;3.60
71081;BMP180;58740;50.672;18.690;2023-04-03T08:28:43;99717.80;;;3.60
71081;BMP180;58740;50.672;18.690;2023-04-03T08:31:16;99719.80;;;3.56
71081;BMP180;58740;50.672;18.690;2023-04-03T08:33:44;99717.40;;;3.40
71081;BMP180;58740;50.672;18.690;2023-04-03T08:36:26;99718.00;;;3.40
71081;BMP180;58740;50.672;18.690;2023-04-03T08:38:56;99712.00;;;3.38
71081;BMP180;58740;50.672;18.690;2023-04-03T08:41:42;99717.20;;;3.34
71081;BMP180;58740;50.672;18.690;2023-04-03T08:44:46;99713.40;;;3.40
71081;BMP180;58740;50.672;18.690;2023-04-03T08:47:38;99710.80;;;3.50
71081;BMP180;58740;50.672;18.690;2023-04-03T08:50:13;99715.20;;;3.60
71081;BMP180;58740;50.672;18.690;2023-04-03T08:52:48;99708.40;;;3.60
71081;BMP180;58740;50.672;18.690;2023-04-03T08:55:30;99715.40;;;3.70
71081;BMP180;58740;50.672;18.690;2023-04-03T08:58:06;99714.20;;;3.70
71081;BMP180;58740;50.672;18.690;2023-04-03T09:00:46;99718.20;;;3.70
71081;BMP180;58740;50.672;18.690;2023-04-03T09:03:19;99717.00;;;3.60
71081;BMP180;58740;50.672;18.690;2023-04-03T09:06:11;99720.00;;;3.50
71081;BMP180;58740;50.672;18.690;2023-04-03T09:15:03;99717.60;;;3.50
71081;BMP180;58740;50.672;18.690;2023-04-03T09:17:53;99721.60;;;3.40
71081;BMP180;58740;50.672;18.690;2023-04-03T09:20:54;99720.80;;;3.42
71081;BMP180;58740;50.672;18.690;2023-04-03T09:23:50;99717.40;;;3.40
71081;BMP180;58740;50.672;18.690;2023-04-03T09:26:29;99713.80;;;3.30
71081;BMP180;58740;50.672;18.690;2023-04-03T09:29:02;99725.00;;;3.20
71081;BMP180;58740;50.672;18.690;2023-04-03T09:31:43;99725.00;;;3.10
71081;BMP180;58740;50.672;18.690;2023-04-03T09:34:25;99724.00;;;3.10
71081;BMP180;58740;50.672;18.690;2023-04-03T09:37:00;99724.80;;;3.10
71081;BMP180;58740;50.672;18.690;2023-04-03T09:39:51;99722.20;;;3.00
71081;BMP180;58740;50.672;18.690;2023-04-03T09:42:25;99720.20;;;3.10
71081;BMP180;58740;50.672;18.690;2023-04-03T09:44:58;99714.40;;;3.20
71081;BMP180;58740;50.672;18.690;2023-04-03T09:47:32;99723.40;;;3.30
71081;BMP180;58740;50.672;18.690;2023-04-03T09:52:45;99730.00;;;3.48
71081;BMP180;58740;50.672;18.690;2023-04-03T09:58:04;99728.40;;;3.50
71081;BMP180;58740;50.672;18.690;2023-04-03T10:00:58;99721.80;;;3.66
71081;BMP180;58740;50.672;18.690;2023-04-03T10:03:35;99715.00;;;3.70
71081;BMP180;58740;50.672;18.690;2023-04-03T10:06:22;99719.40;;;3.90
71081;BMP180;58740;50.672;18.690;2023-04-03T10:09:15;99729.40;;;3.96
71081;BMP180;58740;50.672;18.690;2023-04-03T10:12:11;99732.40;;;3.90
71081;BMP180;58740;50.672;18.690;2023-04-03T10:14:55;99730.40;;;3.76
71081;BMP180;58740;50.672;18.690;2023-04-03T10:17:50;99724.40;;;3.70
71081;BMP180;58740;50.672;18.690;2023-04-03T10:20:40;99725.20;;;3.68
71081;BMP180;58740;50.672;18.690;2023-04-03T10:23:39;99739.00;;;3.60
71081;BMP180;58740;50.672;18.690;2023-04-03T10:26:35;99738.40;;;3.50
71081;BMP180;58740;50.672;18.690;2023-04-03T10:32:19;99732.00;;;3.60
71081;BMP180;58740;50.672;18.690;2023-04-03T10:35:02;99727.20;;;3.80
71081;BMP180;58740;50.672;18.690;2023-04-03T10:41:51;99732.80;;;3.96
71081;BMP180;58740;50.672;18.690;2023-04-03T10:44:57;99728.80;;;4.00
71081;BMP180;58740;50.672;18.690;2023-04-03T10:56:53;99714.40;;;4.20
71081;BMP180;58740;50.672;18.690;2023-04-03T10:59:52;99706.80;;;4.22
71081;BMP180;58740;50.672;18.690;2023-04-03T11:02:54;99712.60;;;4.30
71081;BMP180;58740;50.672;18.690;2023-04-03T11:05:43;99705.20;;;4.30
71081;BMP180;58740;50.672;18.690;2023-04-03T11:08:44;99714.00;;;4.30
71081;BMP180;58740;50.672;18.690;2023-04-03T11:11:41;99700.40;;;4.30
71081;BMP180;58740;50.672;18.690;2023-04-03T11:14:36;99713.00;;;4.32
71081;BMP180;58740;50.672;18.690;2023-04-03T11:22:41;99704.80;;;4.36
71081;BMP180;58740;50.672;18.690;2023-04-03T11:27:59;99696.60;;;4.30
71081;BMP180;58740;50.672;18.690;2023-04-03T11:31:08;99712.40;;;4.40
71081;BMP180;58740;50.672;18.690;2023-04-03T11:36:30;99695.80;;;4.54
71081;BMP180;58740;50.672;18.690;2023-04-03T11:39:31;99701.80;;;4.54
71081;BMP180;58740;50.672;18.690;2023-04-03T11:42:38;99690.60;;;4.50
71081;BMP180;58740;50.672;18.690;2023-04-03T11:47:58;99693.00;;;4.60
71081;BMP180;58740;50.672;18.690;2023-04-03T12:04:16;99692.40;;;4.60
71081;BMP180;58740;50.672;18.690;2023-04-03T12:09:26;99701.60;;;4.50
71081;BMP180;58740;50.672;18.690;2023-04-03T12:11:57;99685.20;;;4.60
71081;BMP180;58740;50.672;18.690;2023-04-03T12:14:27;99687.60;;;4.70
71081;BMP180;58740;50.672;18.690;2023-04-03T12:16:57;99689.80;;;4.70
71081;BMP180;58740;50.672;18.690;2023-04-03T12:19:39;99700.80;;;4.80
71081;BMP180;58740;50.672;18.690;2023-04-03T12:22:16;99691.00;;;4.72
71081;BMP180;58740;50.672;18.690;2023-04-03T12:24:50;99689.00;;;4.76
71081;BMP180;58740;50.672;18.690;2023-04-03T12:27:34;99684.80;;;4.80
71081;BMP180;58740;50.672;18.690;2023-04-03T12:30:21;99683.40;;;4.86
71081;BMP180;58740;50.672;18.690;2023-04-03T12:33:20;99684.20;;;4.80
71081;BMP180;58740;50.672;18.690;2023-04-03T12:36:15;99681.00;;;4.90
71081;BMP180;58740;50.672;18.690;2023-04-03T12:39:24;99675.20;;;5.00
71081;BMP180;58740;50.672;18.690;2023-04-03T12:42:19;99670.00;;;5.00
71081;BMP180;58740;50.672;18.690;2023-04-03T12:47:43;99682.20;;;5.02
71081;BMP180;58740;50.672;18.690;2023-04-03T12:50:30;99684.00;;;4.90
71081;BMP180;58740;50.672;18.690;2023-04-03T12:53:10;99683.60;;;4.90
71081;BMP180;58740;50.672;18.690;2023-04-03T12:55:39;99676.20;;;4.90
71081;BMP180;58740;50.672;18.690;2023-04-03T12:58:27;99668.00;;;4.90
71081;BMP180;58740;50.672;18.690;2023-04-03T13:01:15;99673.80;;;4.90
71081;BMP180;58740;50.672;18.690;2023-04-03T13:03:50;99662.40;;;4.90
71081;BMP180;58740;50.672;18.690;2023-04-03T13:06:42;99664.00;;;4.90
71081;BMP180;58740;50.672;18.690;2023-04-03T13:09:42;99665.40;;;4.94
71081;BMP180;58740;50.672;18.690;2023-04-03T13:12:14;99674.80;;;4.90
71081;BMP180;58740;50.672;18.690;2023-04-03T13:14:56;99666.80;;;4.90
71081;BMP180;58740;50.672;18.690;2023-04-03T13:17:25;99666.00;;;4.80
71081;BMP180;58740;50.672;18.690;2023-04-03T13:19:54;99661.60;;;4.72
71081;BMP180;58740;50.672;18.690;2023-04-03T13:22:39;99662.40;;;4.74
71081;BMP180;58740;50.672;18.690;2023-04-03T13:25:15;99670.60;;;4.80
71081;BMP180;58740;50.672;18.690;2023-04-03T13:27:44;99672.00;;;4.86
71081;BMP180;58740;50.672;18.690;2023-04-03T13:30:31;99671.00;;;4.90
71081;BMP180;58740;50.672;18.690;2023-04-03T13:33:05;99663.80;;;4.90
71081;BMP180;58740;50.672;18.690;2023-04-03T13:35:40;99660.00;;;4.90
71081;BMP180;58740;50.672;18.690;2023-04-03T13:40:56;99671.20;;;4.90
71081;BMP180;58740;50.672;18.690;2023-04-03T13:43:31;99676.00;;;4.80
71081;BMP180;58740;50.672;18.690;2023-04-03T13:46:25;99666.60;;;4.80
71081;BMP180;58740;50.672;18.690;2023-04-03T13:48:56;99668.20;;;4.80
71081;BMP180;58740;50.672;18.690;2023-04-03T13:51:28;99661.60;;;4.80
71081;BMP180;58740;50.672;18.690;2023-04-03T13:54:01;99672.40;;;4.90
71081;BMP180;58740;50.672;18.690;2023-04-03T13:56:34;99672.80;;;4.86
71081;BMP180;58740;50.672;18.690;2023-04-03T14:02:20;99680.40;;;4.80
71081;BMP180;58740;50.672;18.690;2023-04-03T14:04:55;99696.80;;;4.80
71081;BMP180;58740;50.672;18.690;2023-04-03T14:07:27;99686.20;;;4.76
71081;BMP180;58740;50.672;18.690;2023-04-03T14:09:55;99691.00;;;4.76
71081;BMP180;58740;50.672;18.690;2023-04-03T14:12:35;99696.40;;;4.70
71081;BMP180;58740;50.672;18.690;2023-04-03T14:15:18;99699.20;;;4.60
71081;BMP180;58740;50.672;18.690;2023-04-03T14:17:46;99697.40;;;4.60
71081;BMP180;58740;50.672;18.690;2023-04-03T14:20:22;99692.60;;;4.50
71081;BMP180;58740;50.672;18.690;2023-04-03T14:22:51;99693.00;;;4.50
71081;BMP180;58740;50.672;18.690;2023-04-03T14:25:21;99690.00;;;4.50
71081;BMP180;58740;50.672;18.690;2023-04-03T14:27:52;99691.20;;;4.50
71081;BMP180;58740;50.672;18.690;2023-04-03T14:30:27;99700.40;;;4.60
71081;BMP180;58740;50.672;18.690;2023-04-03T14:32:55;99699.40;;;4.60
71081;BMP180;58740;50.672;18.690;2023-04-03T14:35:25;99698.60;;;4.50
71081;BMP180;58740;50.672;18.690;2023-04-03T14:37:54;99703.20;;;4.50
71081;BMP180;58740;50.672;18.690;2023-04-03T14:40:25;99697.60;;;4.50
71081;BMP180;58740;50.672;18.690;2023-04-03T14:42:54;99693.20;;;4.42
71081;BMP180;58740;50.672;18.690;2023-04-03T14:45:23;99699.20;;;4.40
71081;BMP180;58740;50.672;18.690;2023-04-03T14:47:54;99692.60;;;4.40
71081;BMP180;58740;50.672;18.690;2023-04-03T14:50:26;99696.80;;;4.40
71081;BMP180;58740;50.672;18.690;2023-04-03T14:52:58;99695.20;;;4.40
71081;BMP180;58740;50.672;18.690;2023-04-03T14:55:26;99696.60;;;4.50
71081;BMP180;58740;50.672;18.690;2023-04-03T14:57:55;99706.60;;;4.50
71081;BMP180;58740;50.672;18.690;2023-04-03T15:00:23;99699.80;;;4.50
71081;BMP180;58740;50.672;18.690;2023-04-03T15:02:50;99692.00;;;4.50
71081;BMP180;58740;50.672;18.690;2023-04-03T15:05:19;99704.00;;;4.48
71081;BMP180;58740;50.672;18.690;2023-04-03T15:07:54;99711.80;;;4.42
71081;BMP180;58740;50.672;18.690;2023-04-03T15:10:29;99710.20;;;4.40
71081;BMP180;58740;50.672;18.690;2023-04-03T15:12:57;99710.80;;;4.40
71081;BMP180;58740;50.672;18.690;2023-04-03T15:15:29;99711.60;;;4.30
71081;BMP180;58740;50.672;18.690;2023-04-03T15:17:57;99710.20;;;4.30
71081;BMP180;58740;50.672;18.690;2023-04-03T15:20:27;99710.20;;;4.30
71081;BMP180;58740;50.672;18.690;2023-04-03T15:22:58;99714.00;;;4.30
71081;BMP180;58740;50.672;18.690;2023-04-03T15:25:29;99709.80;;;4.30
71081;BMP180;58740;50.672;18.690;2023-04-03T15:27:58;99711.60;;;4.20
71081;BMP180;58740;50.672;18.690;2023-04-03T15:30:27;99714.20;;;4.20
71081;BMP180;58740;50.672;18.690;2023-04-03T15:32:55;99720.00;;;4.20
71081;BMP180;58740;50.672;18.690;2023-04-03T15:35:23;99713.20;;;4.20
71081;BMP180;58740;50.672;18.690;2023-04-03T15:37:51;99721.40;;;4.10
71081;BMP180;58740;50.672;18.690;2023-04-03T15:40:19;99719.40;;;4.10
71081;BMP180;58740;50.672;18.690;2023-04-03T15:42:46;99716.40;;;4.10
71081;BMP180;58740;50.672;18.690;2023-04-03T15:45:14;99718.40;;;4.02
71081;BMP180;58740;50.672;18.690;2023-04-03T15:47:42;99721.60;;;4.00
71081;BMP180;58740;50.672;18.690;2023-04-03T15:50:10;99719.60;;;4.00
71081;BMP180;58740;50.672;18.690;2023-04-03T15:52:39;99720.60;;;4.00
71081;BMP180;58740;50.672;18.690;2023-04-03T15:55:07;99723.00;;;4.00
71081;BMP180;58740;50.672;18.690;2023-04-03T15:57:35;99722.40;;;4.00
71081;BMP180;58740;50.672;18.690;2023-04-03T16:00:08;99727.40;;;4.00
71081;BMP180;58740;50.672;18.690;2023-04-03T16:02:37;99729.00;;;4.00